createdAt,value
2018-09-12T00:00:54.489Z,20.00
2018-09-12T00:03:25.336Z,20.00
2018-09-12T00:05:55.639Z,20.10
2018-09-12T00:08:25.465Z,20.10
2018-09-12T00:10:56.045Z,20.00
2018-09-12T00:13:26.714Z,20.00
2018-09-12T00:15:56.836Z,20.00
2018-09-12T00:18:26.951Z,20.00
2018-09-12T00:20:57.705Z,20.00
2018-09-12T00:23:28.104Z,20.00
2018-09-12T00:25:58.525Z,19.90
2018-09-12T00:28:28.468Z,19.90
2018-09-12T00:30:58.794Z,19.90
2018-09-12T00:33:29.029Z,19.80
2018-09-12T00:35:59.050Z,19.80
2018-09-12T00:38:29.647Z,19.80
2018-09-12T00:40:59.637Z,19.80
2018-09-12T00:43:29.632Z,19.70
2018-09-12T00:46:00.540Z,19.70
2018-09-12T00:48:30.544Z,19.60
2018-09-12T00:51:00.755Z,19.50
2018-09-12T00:53:30.771Z,19.40
2018-09-12T00:56:00.867Z,19.50
2018-09-12T00:58:30.953Z,19.40
2018-09-12T01:01:01.860Z,19.30
2018-09-12T01:03:31.910Z,19.30
2018-09-12T01:06:02.305Z,19.30
2018-09-12T01:08:32.241Z,19.30
2018-09-12T01:11:02.552Z,19.30
2018-09-12T01:13:32.891Z,19.30
2018-09-12T01:16:03.407Z,19.30
2018-09-12T01:18:33.424Z,19.30
2018-09-12T01:21:04.006Z,19.30
2018-09-12T01:23:34.117Z,19.10
2018-09-12T01:26:04.503Z,19.00
2018-09-12T01:28:34.454Z,19.00
2018-09-12T01:31:05.051Z,18.90
2018-09-12T01:33:34.968Z,18.90
2018-09-12T01:36:04.855Z,18.90
2018-09-12T01:38:35.436Z,18.80
2018-09-12T01:41:05.579Z,18.80
2018-09-12T01:43:36.264Z,18.80
2018-09-12T01:46:07.113Z,18.80
2018-09-12T01:48:37.106Z,18.80
2018-09-12T01:51:07.073Z,18.80
2018-09-12T01:53:37.682Z,18.70
2018-09-12T01:56:07.678Z,18.80
2018-09-12T01:58:37.378Z,18.80
2018-09-12T02:01:14.171Z,18.80
2018-09-12T02:03:44.346Z,18.90
2018-09-12T02:06:14.386Z,18.90
2018-09-12T02:08:44.622Z,18.90
2018-09-12T02:11:14.951Z,18.80
2018-09-12T02:13:45.020Z,18.80
2018-09-12T02:16:16.274Z,18.90
2018-09-12T02:18:46.073Z,18.80
2018-09-12T02:21:16.105Z,18.80
2018-09-12T02:23:46.770Z,18.80
2018-09-12T02:26:16.866Z,18.80
2018-09-12T02:28:46.823Z,18.80
2018-09-12T02:31:17.267Z,18.70
2018-09-12T02:33:47.306Z,18.70
2018-09-12T02:36:22.858Z,18.70
2018-09-12T02:38:52.692Z,18.70
2018-09-12T02:41:22.668Z,18.70
2018-09-12T02:43:52.702Z,18.60
2018-09-12T02:46:22.796Z,18.70
2018-09-12T02:48:53.043Z,18.60
2018-09-12T02:51:24.441Z,18.70
2018-09-12T02:53:54.382Z,18.80
2018-09-12T02:56:24.080Z,18.60
2018-09-12T02:58:53.923Z,18.70
2018-09-12T03:01:23.863Z,18.70
2018-09-12T03:06:47.474Z,18.70
2018-09-12T03:09:17.206Z,18.70
2018-09-12T03:11:47.319Z,18.70
2018-09-12T03:14:17.286Z,18.60
2018-09-12T03:16:47.758Z,18.60
2018-09-12T03:19:17.785Z,18.60
2018-09-12T03:21:47.820Z,18.60
2018-09-12T03:24:17.750Z,18.60
2018-09-12T03:26:49.253Z,18.60
2018-09-12T03:29:19.302Z,18.60
2018-09-12T03:31:49.250Z,18.70
2018-09-12T03:34:19.554Z,18.70
2018-09-12T03:36:49.989Z,18.60
2018-09-12T03:39:19.992Z,18.70
2018-09-12T03:41:49.855Z,18.60
2018-09-12T03:44:20.227Z,18.60
2018-09-12T03:46:50.645Z,18.60
2018-09-12T03:49:20.475Z,18.60
2018-09-12T03:51:51.245Z,18.60
2018-09-12T03:54:21.355Z,18.60
2018-09-12T03:56:51.212Z,18.60
2018-09-12T03:59:21.470Z,18.60
2018-09-12T04:01:51.339Z,18.70
2018-09-12T04:04:21.496Z,18.70
2018-09-12T04:06:52.069Z,18.70
2018-09-12T04:09:23.050Z,18.80
2018-09-12T04:11:52.997Z,18.80
2018-09-12T04:14:26.303Z,18.60
2018-09-12T04:16:59.462Z,18.60
2018-09-12T04:19:32.387Z,18.50
2018-09-12T04:22:04.954Z,18.50
2018-09-12T04:24:35.158Z,18.50
2018-09-12T04:27:05.212Z,18.50
2018-09-12T04:29:38.093Z,18.50
2018-09-12T04:32:08.732Z,18.60
2018-09-12T04:34:39.137Z,18.60
2018-09-12T04:37:09.541Z,18.50
2018-09-12T04:39:40.595Z,18.50
2018-09-12T04:42:11.875Z,18.60
2018-09-12T04:44:48.298Z,18.50
2018-09-12T04:47:23.887Z,18.50
2018-09-12T04:49:58.017Z,18.60
2018-09-12T04:52:27.979Z,18.60
2018-09-12T04:54:58.407Z,18.60
2018-09-12T04:57:28.901Z,18.60
2018-09-12T05:00:00.957Z,18.50
2018-09-12T05:02:31.280Z,18.50
2018-09-12T05:05:02.195Z,18.50
2018-09-12T05:07:32.641Z,18.50
2018-09-12T05:10:02.967Z,18.50
2018-09-12T05:12:34.010Z,18.50
2018-09-12T05:15:05.281Z,18.60
2018-09-12T05:17:35.739Z,18.50
2018-09-12T05:20:06.942Z,18.50
2018-09-12T05:22:37.292Z,18.50
2018-09-12T05:25:07.569Z,18.40
2018-09-12T05:27:38.238Z,18.50
2018-09-12T05:30:09.202Z,18.50
2018-09-12T05:32:39.366Z,18.50
2018-09-12T05:35:10.122Z,18.50
2018-09-12T05:37:40.907Z,18.50
2018-09-12T05:40:11.263Z,18.50
2018-09-12T05:42:41.668Z,18.60
2018-09-12T05:45:11.981Z,18.50
2018-09-12T05:47:42.080Z,18.60
2018-09-12T05:50:13.924Z,18.60
2018-09-12T05:52:50.131Z,18.60
2018-09-12T05:55:20.218Z,18.60
2018-09-12T05:57:50.197Z,18.60
2018-09-12T06:00:22.323Z,18.60
2018-09-12T06:02:52.842Z,18.60
2018-09-12T06:05:22.896Z,18.50
2018-09-12T06:07:53.190Z,18.60
2018-09-12T06:10:23.399Z,18.50
2018-09-12T06:12:53.671Z,18.60
2018-09-12T06:15:24.466Z,18.60
2018-09-12T06:17:54.711Z,18.60
2018-09-12T06:20:24.641Z,18.70
2018-09-12T06:22:54.751Z,18.70
2018-09-12T06:25:25.147Z,18.60
2018-09-12T06:27:55.932Z,18.70
2018-09-12T06:30:26.727Z,18.60
2018-09-12T06:32:56.602Z,18.60
2018-09-12T06:35:27.660Z,18.70
2018-09-12T06:38:02.145Z,18.70
2018-09-12T06:40:32.570Z,18.60
2018-09-12T06:43:04.097Z,18.60
2018-09-12T06:45:34.342Z,18.70
2018-09-12T06:48:04.759Z,18.70
2018-09-12T06:50:35.169Z,18.80
2018-09-12T06:53:05.968Z,18.80
2018-09-12T06:55:36.920Z,18.90
2018-09-12T06:58:07.189Z,19.00
2018-09-12T07:00:37.488Z,19.10
2018-09-12T07:03:08.674Z,19.20
2018-09-12T07:05:39.125Z,19.10
2018-09-12T07:08:09.674Z,19.10
2018-09-12T07:10:53.807Z,19.10
2018-09-12T07:13:40.616Z,19.10
2018-09-12T07:16:12.226Z,19.00
2018-09-12T07:18:43.315Z,19.10
2018-09-12T07:21:13.751Z,19.10
2018-09-12T07:23:44.111Z,19.20
2018-09-12T07:26:14.754Z,19.40
2018-09-12T07:28:45.082Z,19.50
2018-09-12T07:31:15.871Z,19.40
2018-09-12T07:34:01.991Z,19.40
2018-09-12T07:36:44.523Z,19.30
2018-09-12T07:39:22.939Z,19.60
2018-09-12T07:41:54.338Z,20.10
2018-09-12T07:44:24.571Z,20.30
2018-09-12T07:46:54.690Z,20.10
2018-09-12T07:49:25.489Z,19.90
2018-09-12T07:51:56.645Z,19.80
2018-09-12T07:54:27.581Z,19.90
2018-09-12T07:56:57.318Z,20.00
2018-09-12T07:59:28.430Z,20.00
2018-09-12T08:01:58.727Z,20.00
2018-09-12T08:04:29.524Z,20.10
2018-09-12T08:06:59.266Z,20.20
2018-09-12T08:09:29.947Z,20.20
2018-09-12T08:11:59.862Z,20.20
2018-09-12T08:14:30.145Z,20.10
2018-09-12T08:16:59.910Z,20.10
2018-09-12T08:19:30.058Z,20.20
2018-09-12T08:22:00.289Z,20.10
2018-09-12T08:24:31.162Z,20.10
2018-09-12T08:27:01.418Z,20.20
2018-09-12T08:29:31.756Z,20.10
2018-09-12T08:32:01.848Z,19.90
2018-09-12T08:34:31.920Z,19.90
2018-09-12T08:37:02.257Z,19.90
2018-09-12T08:39:32.303Z,20.00
2018-09-12T08:42:02.364Z,20.00
2018-09-12T08:44:33.855Z,20.40
2018-09-12T08:47:04.310Z,20.40
2018-09-12T08:49:34.498Z,20.60
2018-09-12T08:52:04.847Z,20.60
2018-09-12T08:54:35.272Z,20.50
2018-09-12T08:57:05.977Z,20.40
2018-09-12T08:59:36.416Z,20.50
2018-09-12T09:02:07.158Z,20.50
2018-09-12T09:04:37.328Z,20.50
2018-09-12T09:07:08.474Z,20.60
2018-09-12T09:09:39.674Z,20.70
2018-09-12T09:12:10.962Z,20.70
2018-09-12T09:14:42.185Z,20.80
2018-09-12T09:17:13.656Z,20.80
2018-09-12T09:19:44.950Z,20.70
2018-09-12T09:22:15.249Z,20.30
2018-09-12T09:24:46.611Z,20.10
2018-09-12T09:27:19.306Z,19.90
2018-09-12T09:29:51.377Z,19.80
2018-09-12T09:32:21.560Z,19.50
2018-09-12T09:34:51.744Z,19.50
2018-09-12T09:37:23.311Z,19.40
2018-09-12T09:39:55.796Z,19.40
2018-09-12T09:42:26.599Z,19.30
2018-09-12T09:44:56.547Z,19.10
2018-09-12T09:47:26.507Z,19.00
2018-09-12T09:49:56.939Z,18.90
2018-09-12T09:52:28.346Z,18.80
2018-09-12T09:54:58.343Z,18.80
2018-09-12T09:57:29.379Z,18.80
2018-09-12T10:00:00.140Z,18.70
2018-09-12T10:02:36.697Z,18.70
2018-09-12T10:05:13.998Z,18.50
2018-09-12T10:07:47.659Z,18.50
2018-09-12T10:10:19.511Z,18.50
2018-09-12T10:12:50.994Z,18.60
2018-09-12T10:15:21.059Z,18.50
2018-09-12T10:17:51.308Z,18.40
2018-09-12T10:20:21.679Z,18.40
2018-09-12T10:22:51.872Z,18.40
2018-09-12T10:25:22.403Z,18.10
2018-09-12T10:27:53.512Z,18.10
2018-09-12T10:30:23.791Z,18.00
2018-09-12T10:32:55.227Z,17.90
2018-09-12T10:35:27.009Z,17.80
2018-09-12T10:37:57.798Z,17.60
2018-09-12T10:40:30.434Z,17.60
2018-09-12T10:43:02.821Z,17.40
2018-09-12T10:45:32.720Z,17.40
2018-09-12T10:48:03.027Z,17.30
2018-09-12T10:50:34.252Z,17.30
2018-09-12T10:53:04.954Z,17.20
2018-09-12T10:55:34.901Z,17.10
2018-09-12T10:58:05.388Z,17.30
2018-09-12T11:00:37.238Z,17.50
2018-09-12T11:03:07.906Z,17.40
2018-09-12T11:05:38.159Z,17.40
2018-09-12T11:08:08.718Z,17.40
2018-09-12T11:10:40.253Z,17.60
2018-09-12T11:13:10.276Z,17.60
2018-09-12T11:15:41.235Z,17.60
2018-09-12T11:18:11.705Z,17.60
2018-09-12T11:20:41.970Z,17.60
2018-09-12T11:23:12.233Z,17.60
2018-09-12T11:25:43.800Z,17.50
2018-09-12T11:28:15.188Z,17.40
2018-09-12T11:30:46.859Z,17.40
2018-09-12T11:33:17.386Z,17.50
2018-09-12T11:35:47.621Z,17.40
2018-09-12T11:38:17.960Z,17.40
2018-09-12T11:40:48.005Z,17.40
2018-09-12T11:43:19.115Z,17.50
2018-09-12T11:45:50.060Z,17.60
2018-09-12T11:48:20.048Z,17.60
2018-09-12T11:50:51.921Z,17.60
2018-09-12T11:53:24.391Z,17.60
2018-09-12T11:55:54.809Z,17.70
2018-09-12T11:58:24.739Z,17.70
2018-09-12T12:00:56.174Z,17.60
2018-09-12T12:03:27.786Z,17.70
2018-09-12T12:05:57.783Z,17.70
2018-09-12T12:08:27.951Z,17.70
2018-09-12T12:11:02.375Z,17.80
2018-09-12T12:13:32.927Z,17.70
2018-09-12T12:16:03.954Z,17.70
2018-09-12T12:18:35.941Z,17.60
2018-09-12T12:21:06.406Z,17.70
2018-09-12T12:23:37.785Z,17.70
2018-09-12T12:26:08.531Z,17.60
2018-09-12T12:28:40.926Z,17.50
2018-09-12T12:31:11.777Z,17.60
2018-09-12T12:33:42.291Z,17.60
2018-09-12T12:36:13.535Z,17.60
2018-09-12T12:38:45.978Z,17.60
2018-09-12T16:10:55.671Z,17.80
2018-09-12T17:18:32.082Z,16.80
2018-09-12T17:21:02.232Z,16.80
2018-09-12T17:23:38.189Z,16.80
2018-09-12T17:34:57.157Z,16.80
2018-09-12T17:37:28.687Z,16.80
2018-09-12T17:40:01.236Z,16.60
2018-09-12T17:42:32.167Z,16.60
2018-09-12T17:45:02.240Z,16.60
2018-09-12T17:47:32.362Z,16.60
2018-09-12T17:50:02.248Z,16.50
2018-09-12T17:52:32.379Z,16.50
2018-09-12T17:55:02.918Z,16.50
2018-09-12T17:57:41.740Z,16.50
2018-09-12T18:00:12.710Z,16.40
2018-09-12T18:02:43.173Z,16.40
2018-09-12T18:05:13.459Z,16.50
2018-09-12T18:07:44.682Z,16.50
2018-09-12T18:10:16.262Z,16.40
2018-09-12T18:12:46.430Z,16.30
2018-09-12T18:15:18.785Z,16.30
2018-09-12T18:17:51.162Z,16.30
2018-09-12T18:20:22.165Z,16.30
2018-09-12T18:22:53.000Z,16.40
2018-09-12T18:25:35.814Z,16.40
2018-09-12T18:28:07.280Z,16.40
2018-09-12T18:30:38.642Z,16.40
2018-09-12T18:33:10.971Z,16.40
2018-09-12T18:35:41.064Z,16.40
2018-09-12T18:38:11.747Z,16.20
2018-09-12T18:40:41.597Z,16.20
2018-09-12T18:43:12.557Z,16.20
2018-09-12T18:45:43.249Z,16.10
2018-09-12T18:48:13.082Z,16.10
2018-09-12T18:50:43.434Z,16.10
2018-09-12T18:53:15.238Z,16.10
2018-09-12T18:55:45.299Z,16.10
2018-09-12T18:58:15.302Z,16.00
2018-09-12T19:00:56.197Z,16.00
2018-09-12T19:03:26.878Z,16.00
2018-09-12T19:05:57.634Z,16.00
2018-09-12T19:08:28.705Z,16.00
2018-09-12T19:10:58.977Z,15.90
2018-09-12T19:13:31.356Z,15.90
2018-09-12T19:16:01.344Z,15.80
2018-09-12T19:18:31.367Z,15.80
2018-09-12T19:21:02.159Z,15.80
2018-09-12T19:23:33.086Z,15.70
2018-09-12T19:26:03.819Z,15.70
2018-09-12T19:28:34.326Z,15.70
2018-09-12T19:31:05.221Z,15.60
2018-09-12T19:33:34.998Z,15.50
2018-09-12T19:36:05.461Z,15.60
2018-09-12T19:38:42.938Z,15.60
2018-09-12T19:41:13.668Z,15.50
2018-09-12T19:43:50.792Z,15.50
2018-09-12T19:46:26.523Z,15.50
2018-09-12T19:49:04.807Z,15.50
2018-09-12T19:51:38.907Z,15.40
2018-09-12T19:54:12.851Z,15.40
2018-09-12T19:56:54.019Z,15.40
2018-09-12T19:59:31.870Z,15.50
2018-09-12T20:02:02.698Z,15.40
2018-09-12T20:04:37.037Z,15.50
2018-09-12T20:07:12.526Z,15.50
2018-09-12T20:09:55.432Z,15.60
2018-09-12T20:12:32.216Z,15.60
2018-09-12T20:15:14.510Z,15.60
2018-09-12T20:17:45.422Z,15.60
2018-09-12T20:20:15.228Z,15.70
2018-09-12T20:22:45.366Z,15.70
2018-09-12T20:25:18.217Z,15.70
2018-09-12T20:27:48.040Z,15.70
2018-09-12T20:30:20.067Z,15.70
2018-09-12T20:32:50.966Z,15.70
2018-09-12T20:35:22.500Z,15.60
2018-09-12T20:37:54.376Z,15.50
2018-09-12T20:40:26.431Z,15.40
2018-09-12T20:43:19.310Z,15.40
2018-09-12T20:45:49.756Z,15.50
2018-09-12T20:48:21.080Z,15.50
2018-09-12T20:50:53.549Z,15.60
2018-09-12T20:53:24.482Z,15.70
2018-09-12T20:55:56.038Z,15.70
2018-09-12T20:58:27.220Z,15.60
2018-09-12T21:00:59.397Z,15.60
2018-09-12T21:03:29.695Z,15.50
2018-09-12T21:05:59.919Z,15.60
2018-09-12T21:08:30.435Z,15.60
2018-09-12T21:11:18.783Z,15.60
2018-09-12T21:13:48.439Z,15.60
2018-09-12T21:16:18.162Z,15.70
2018-09-12T21:18:55.466Z,15.70
2018-09-12T21:21:25.920Z,15.60
2018-09-12T21:23:56.087Z,15.60
2018-09-12T21:26:26.175Z,15.60
2018-09-12T21:28:56.426Z,15.60
2018-09-12T21:31:26.209Z,15.60
2018-09-12T21:33:56.014Z,15.60
2018-09-12T21:36:25.940Z,15.60
2018-09-12T21:38:55.639Z,15.60
2018-09-12T21:41:43.738Z,15.70
2018-09-12T21:44:14.518Z,15.60
2018-09-12T21:46:44.326Z,15.60
2018-09-12T21:49:20.725Z,15.60
2018-09-12T21:51:50.542Z,15.50
2018-09-12T21:54:20.339Z,15.50
2018-09-12T21:56:50.903Z,15.50
2018-09-12T21:59:20.910Z,15.50
2018-09-12T22:01:51.072Z,15.50
2018-09-12T22:04:21.252Z,15.60
2018-09-12T22:06:53.114Z,15.60
2018-09-12T22:09:23.294Z,15.60
2018-09-12T22:11:57.941Z,15.60
2018-09-12T22:14:27.915Z,15.60
2018-09-12T22:16:58.930Z,15.60
2018-09-12T22:19:37.006Z,15.60
2018-09-12T22:22:06.870Z,15.60
2018-09-12T22:24:36.675Z,15.60
2018-09-12T22:27:07.379Z,15.60
2018-09-12T22:29:38.698Z,15.60
2018-09-12T22:32:08.482Z,15.70
2018-09-12T22:34:38.238Z,15.70
2018-09-12T22:37:07.870Z,15.60
2018-09-12T22:39:37.933Z,15.50
2018-09-12T22:42:07.718Z,15.40
2018-09-12T22:44:44.168Z,15.40
2018-09-12T22:47:14.021Z,15.40
2018-09-12T22:49:43.895Z,15.50
2018-09-12T22:52:13.513Z,15.50
2018-09-12T22:54:50.514Z,15.40
2018-09-12T22:57:20.182Z,15.40
2018-09-12T22:59:49.827Z,15.40
2018-09-12T23:02:19.838Z,15.30
2018-09-12T23:04:49.557Z,15.20
2018-09-12T23:07:19.237Z,15.20
2018-09-12T23:10:01.492Z,15.20
2018-09-12T23:12:31.121Z,15.20
2018-09-12T23:15:00.750Z,15.20
2018-09-12T23:17:31.008Z,15.30
2018-09-12T23:20:00.738Z,15.30
2018-09-12T23:22:30.613Z,15.20
2018-09-12T23:25:00.218Z,15.20
2018-09-12T23:27:37.038Z,15.20
2018-09-12T23:30:06.970Z,15.30
2018-09-12T23:32:37.189Z,15.20
2018-09-12T23:35:06.888Z,15.20
2018-09-12T23:37:36.564Z,15.20
2018-09-12T23:40:06.505Z,15.20
2018-09-12T23:42:36.670Z,15.20
2018-09-12T23:45:07.042Z,15.10
2018-09-12T23:47:37.152Z,15.10
2018-09-12T23:50:16.489Z,15.10
2018-09-12T23:52:46.429Z,15.10
2018-09-12T23:55:16.120Z,15.20
2018-09-12T23:57:45.702Z,15.20
